createdAt,value
2019-06-26T06:00:33.513Z,25.93
2019-06-26T06:01:33.491Z,25.91
2019-06-26T06:02:33.482Z,25.86
2019-06-26T06:03:33.481Z,25.80
2019-06-26T06:04:33.449Z,25.84
2019-06-26T06:05:33.434Z,25.86
2019-06-26T06:06:41.616Z,25.90
2019-06-26T06:08:43.785Z,25.93
2019-06-26T06:09:43.745Z,26.02
2019-06-26T06:10:43.766Z,26.01
2019-06-26T06:11:43.766Z,26.04
2019-06-26T06:12:43.742Z,25.99
2019-06-26T06:13:43.709Z,26.17
2019-06-26T06:14:43.691Z,26.12
2019-06-26T06:15:43.687Z,26.11
2019-06-26T06:16:47.874Z,26.12
2019-06-26T06:17:43.690Z,26.09
2019-06-26T06:18:43.662Z,26.21
2019-06-26T06:19:43.644Z,26.31
2019-06-26T06:20:43.626Z,26.29
2019-06-26T06:21:43.634Z,26.39
2019-06-26T06:22:43.627Z,26.39
2019-06-26T06:23:43.631Z,26.39
2019-06-26T06:24:43.672Z,26.46
2019-06-26T06:25:43.597Z,26.44
2019-06-26T06:26:43.607Z,26.52
2019-06-26T06:27:43.581Z,26.49
2019-06-26T06:28:43.548Z,26.46
2019-06-26T06:29:43.619Z,26.58
2019-06-26T06:30:51.077Z,26.58
2019-06-26T06:31:43.523Z,26.54
2019-06-26T06:32:43.504Z,26.59
2019-06-26T06:33:43.519Z,26.55
2019-06-26T06:34:43.487Z,26.54
2019-06-26T06:35:43.468Z,26.59
2019-06-26T06:36:43.460Z,26.64
2019-06-26T06:37:43.481Z,26.58
2019-06-26T06:38:43.487Z,26.61
2019-06-26T06:39:43.426Z,26.67
2019-06-26T06:40:43.421Z,26.67
2019-06-26T06:41:43.668Z,26.64
2019-06-26T06:42:43.392Z,26.68
2019-06-26T06:43:43.917Z,26.76
2019-06-26T06:44:43.405Z,26.62
2019-06-26T06:45:43.584Z,26.72
2019-06-26T06:46:43.353Z,26.68
2019-06-26T06:47:43.345Z,26.69
2019-06-26T06:48:43.443Z,26.79
2019-06-26T06:49:43.345Z,26.83
2019-06-26T06:50:43.362Z,26.98
2019-06-26T06:51:43.302Z,26.91
2019-06-26T06:52:43.325Z,26.94
2019-06-26T06:53:43.314Z,26.92
2019-06-26T06:54:43.268Z,26.91
2019-06-26T06:55:43.291Z,26.79
2019-06-26T06:56:43.252Z,26.89
2019-06-26T06:57:43.268Z,26.91
2019-06-26T06:58:43.258Z,26.92
2019-06-26T06:59:43.255Z,26.87
2019-06-26T07:00:43.266Z,26.95
2019-06-26T07:01:43.203Z,26.95
2019-06-26T07:02:43.195Z,26.94
2019-06-26T07:03:43.180Z,26.92
2019-06-26T07:04:43.203Z,27.04
2019-06-26T07:05:43.179Z,27.01
2019-06-26T07:06:43.145Z,27.02
2019-06-26T07:07:43.151Z,27.01
2019-06-26T07:08:43.159Z,26.91
2019-06-26T07:09:43.161Z,27.09
2019-06-26T07:10:43.115Z,27.10
2019-06-26T07:11:43.126Z,27.05
2019-06-26T07:12:43.102Z,27.10
2019-06-26T07:13:43.072Z,27.10
2019-06-26T07:14:43.113Z,27.10
2019-06-26T07:15:43.112Z,27.23
2019-06-26T07:16:43.044Z,27.23
2019-06-26T07:17:43.089Z,27.23
2019-06-26T07:18:43.083Z,27.32
2019-06-26T07:19:43.038Z,27.23
2019-06-26T07:20:44.767Z,27.32
2019-06-26T07:21:42.993Z,27.36
2019-06-26T07:22:42.989Z,27.33
2019-06-26T07:23:42.970Z,27.39
2019-06-26T07:24:42.999Z,27.41
2019-06-26T07:25:42.996Z,27.50
2019-06-26T07:26:42.937Z,27.41
2019-06-26T07:27:42.923Z,27.51
2019-06-26T07:28:43.007Z,27.50
2019-06-26T07:29:42.939Z,27.51
2019-06-26T07:30:42.894Z,27.48
2019-06-26T07:31:42.898Z,27.58
2019-06-26T07:32:42.889Z,27.43
2019-06-26T07:33:42.996Z,27.41
2019-06-26T07:34:42.862Z,27.43
2019-06-26T07:35:42.947Z,27.41
2019-06-26T07:36:42.900Z,27.43
2019-06-26T07:37:42.819Z,27.51
2019-06-26T07:38:42.863Z,27.54
2019-06-26T07:39:42.829Z,27.53
2019-06-26T07:40:42.806Z,27.69
2019-06-26T07:41:42.775Z,27.64
2019-06-26T07:42:42.871Z,27.66
2019-06-26T07:43:42.819Z,27.61
2019-06-26T07:44:42.765Z,27.73
2019-06-26T07:45:42.740Z,27.73
2019-06-26T07:46:42.726Z,27.73
2019-06-26T07:47:44.256Z,27.74
2019-06-26T07:48:42.757Z,27.74
2019-06-26T07:49:42.726Z,27.82
2019-06-26T07:50:42.706Z,27.82
2019-06-26T07:51:42.695Z,27.80
2019-06-26T07:52:42.878Z,27.77
2019-06-26T07:53:42.662Z,27.85
2019-06-26T07:54:42.668Z,27.84
2019-06-26T07:55:42.637Z,27.82
2019-06-26T07:56:42.658Z,27.84
2019-06-26T07:57:42.617Z,27.76
2019-06-26T07:58:42.655Z,27.77
2019-06-26T07:59:42.675Z,27.76
2019-06-26T08:00:42.596Z,27.77
2019-06-26T08:01:42.594Z,27.70
2019-06-26T08:02:42.566Z,27.79
2019-06-26T08:03:42.550Z,27.86
2019-06-26T08:04:42.576Z,27.91
2019-06-26T08:05:43.255Z,27.94
2019-06-26T08:06:42.547Z,28.01
2019-06-26T08:07:42.515Z,28.03
2019-06-26T08:08:42.514Z,27.88
2019-06-26T08:09:42.519Z,28.01
2019-06-26T08:10:42.527Z,27.94
2019-06-26T08:11:42.505Z,27.94
2019-06-26T08:12:42.492Z,27.94
2019-06-26T08:13:42.458Z,27.96
2019-06-26T08:14:42.535Z,27.92
2019-06-26T08:15:42.424Z,27.94
2019-06-26T08:16:42.448Z,28.04
2019-06-26T08:17:58.801Z,27.99
2019-06-26T08:18:43.396Z,27.98
2019-06-26T08:19:42.438Z,28.13
2019-06-26T08:20:55.482Z,28.11
2019-06-26T08:22:52.732Z,28.17
2019-06-26T08:23:52.687Z,28.19
2019-06-26T08:24:52.709Z,28.22
2019-06-26T08:25:52.714Z,28.26
2019-06-26T08:26:52.658Z,28.32
2019-06-26T08:27:52.695Z,28.38
2019-06-26T08:28:52.636Z,28.41
2019-06-26T08:29:52.669Z,28.46
2019-06-26T08:30:52.859Z,28.44
2019-06-26T08:31:52.610Z,28.48
2019-06-26T08:32:52.658Z,28.44
2019-06-26T08:33:52.586Z,28.51
2019-06-26T08:34:52.577Z,28.53
2019-06-26T08:35:52.595Z,28.47
2019-06-26T08:36:52.594Z,28.50
2019-06-26T08:38:09.079Z,28.54
2019-06-26T08:38:53.582Z,28.46
2019-06-26T08:39:52.547Z,28.48
2019-06-26T08:40:52.523Z,28.35
2019-06-26T08:41:52.843Z,28.43
2019-06-26T08:42:52.528Z,28.48
2019-06-26T08:43:52.492Z,28.60
2019-06-26T08:44:52.518Z,28.70
2019-06-26T08:45:52.476Z,28.66
2019-06-26T08:46:52.466Z,28.73
2019-06-26T08:47:52.438Z,28.72
2019-06-26T08:48:52.457Z,28.73
2019-06-26T08:49:52.472Z,28.70
2019-06-26T08:50:52.416Z,28.78
2019-06-26T08:51:52.398Z,28.81
2019-06-26T08:52:52.458Z,28.84
2019-06-26T08:53:52.381Z,28.88
2019-06-26T08:54:52.381Z,28.93
2019-06-26T08:55:52.385Z,28.88
2019-06-26T08:56:52.344Z,28.85
2019-06-26T08:57:52.428Z,28.91
2019-06-26T08:58:52.348Z,28.88
2019-06-26T08:59:52.322Z,28.96
2019-06-26T09:00:52.357Z,28.96
2019-06-26T09:01:52.369Z,29.04
2019-06-26T09:02:52.303Z,29.10
2019-06-26T09:03:52.285Z,29.13
2019-06-26T09:04:52.272Z,29.16
2019-06-26T09:05:52.311Z,29.25
2019-06-26T09:06:52.292Z,29.20
2019-06-26T09:07:52.269Z,29.22
2019-06-26T09:08:52.249Z,29.22
2019-06-26T09:09:52.215Z,29.20
2019-06-26T09:10:52.208Z,29.18
2019-06-26T09:11:52.302Z,29.29
2019-06-26T09:12:52.183Z,29.22
2019-06-26T09:13:52.169Z,29.25
2019-06-26T09:14:52.158Z,29.22
2019-06-26T09:15:52.151Z,29.26
2019-06-26T09:16:52.182Z,29.26
2019-06-26T09:17:52.129Z,29.29
2019-06-26T09:18:52.131Z,29.31
2019-06-26T09:19:52.108Z,29.29
2019-06-26T09:20:52.197Z,29.34
2019-06-26T09:21:52.126Z,29.28
2019-06-26T09:22:52.087Z,29.34
2019-06-26T09:23:52.164Z,29.41
2019-06-26T09:24:52.092Z,29.38
2019-06-26T09:25:52.047Z,29.40
2019-06-26T09:26:52.060Z,29.44
2019-06-26T09:27:52.033Z,29.43
2019-06-26T09:28:52.015Z,29.41
2019-06-26T09:29:52.043Z,29.41
2019-06-26T09:30:52.025Z,29.45
2019-06-26T09:31:52.019Z,29.49
2019-06-26T09:32:51.998Z,29.59
2019-06-26T09:33:51.966Z,29.63
2019-06-26T09:34:51.983Z,29.63
2019-06-26T09:35:51.978Z,29.65
2019-06-26T09:36:51.932Z,29.66
2019-06-26T09:37:51.926Z,29.75
2019-06-26T09:38:51.911Z,29.70
2019-06-26T09:39:51.905Z,29.78
2019-06-26T09:40:52.347Z,29.77
2019-06-26T09:41:51.893Z,29.79
2019-06-26T09:42:59.413Z,29.84
2019-06-26T09:43:51.915Z,29.87
2019-06-26T09:44:51.855Z,29.81
2019-06-26T09:45:51.869Z,29.87
2019-06-26T09:46:51.838Z,29.78
2019-06-26T09:47:51.828Z,29.75
2019-06-26T09:48:53.501Z,29.74
2019-06-26T09:49:51.873Z,29.82
2019-06-26T09:50:51.790Z,29.75
2019-06-26T09:51:51.783Z,29.87
2019-06-26T09:52:51.782Z,29.89
2019-06-26T09:53:51.784Z,29.93
2019-06-26T09:54:51.794Z,29.92
2019-06-26T09:55:51.743Z,29.99
2019-06-26T09:56:51.738Z,30.00
2019-06-26T09:57:52.272Z,30.09
2019-06-26T09:58:51.748Z,30.09
2019-06-26T09:59:51.741Z,30.15
2019-06-26T10:00:51.694Z,30.12
2019-06-26T10:01:51.688Z,30.15
2019-06-26T10:02:51.765Z,30.16
2019-06-26T10:03:51.654Z,30.18
2019-06-26T10:04:51.648Z,30.19
2019-06-26T10:05:51.652Z,30.15
2019-06-26T10:06:51.690Z,30.19
2019-06-26T10:07:51.693Z,30.23
2019-06-26T10:08:54.167Z,30.18
2019-06-26T10:09:51.596Z,30.21
2019-06-26T10:10:51.645Z,30.27
2019-06-26T10:11:51.610Z,30.21
2019-06-26T10:12:59.136Z,30.19
2019-06-26T10:13:51.574Z,30.23
2019-06-26T10:14:51.571Z,30.23
2019-06-26T10:15:51.528Z,30.23
2019-06-26T10:16:51.548Z,30.33
2019-06-26T10:17:51.519Z,30.16
2019-06-26T10:19:05.580Z,30.15
2019-06-26T10:19:54.127Z,30.05
2019-06-26T10:20:51.509Z,30.15
2019-06-26T10:21:51.476Z,30.16
2019-06-26T10:22:51.536Z,30.26
2019-06-26T10:23:51.483Z,30.24
2019-06-26T10:24:51.506Z,30.26
2019-06-26T10:25:51.426Z,30.31
2019-06-26T10:26:51.428Z,30.31
2019-06-26T10:27:51.426Z,30.34
2019-06-26T10:28:51.403Z,30.33
2019-06-26T10:29:51.477Z,30.45
2019-06-26T10:30:51.393Z,30.47
2019-06-26T10:31:54.527Z,30.52
2019-06-26T10:32:51.354Z,30.53
2019-06-26T10:33:51.432Z,30.46
2019-06-26T10:34:51.336Z,30.43
2019-06-26T10:35:51.335Z,30.45
2019-06-26T10:36:51.318Z,30.46
2019-06-26T10:37:51.397Z,30.52
2019-06-26T10:38:51.326Z,30.62
2019-06-26T10:39:51.319Z,30.61
2019-06-26T10:40:51.315Z,30.64
2019-06-26T10:41:54.717Z,30.65
2019-06-26T10:42:51.368Z,30.68
2019-06-26T10:43:51.245Z,30.72
2019-06-26T10:44:51.235Z,30.76
2019-06-26T10:45:51.227Z,30.69
2019-06-26T10:46:51.302Z,30.68
2019-06-26T10:47:51.240Z,30.65
2019-06-26T10:48:51.221Z,30.68
2019-06-26T10:49:51.183Z,30.76
2019-06-26T10:50:58.174Z,30.74
2019-06-26T10:51:52.222Z,30.72
2019-06-26T10:52:51.181Z,30.86
2019-06-26T10:53:51.157Z,30.74
2019-06-26T10:54:51.133Z,30.86
2019-06-26T10:55:51.143Z,30.80
2019-06-26T10:56:51.109Z,30.81
2019-06-26T10:57:51.158Z,30.81
2019-06-26T10:58:51.089Z,30.87
2019-06-26T10:59:55.337Z,30.84
2019-06-26T11:00:51.165Z,30.89
2019-06-26T11:01:51.069Z,30.99
2019-06-26T11:02:51.085Z,30.98
2019-06-26T11:03:51.035Z,30.93
2019-06-26T11:04:51.051Z,30.93
2019-06-26T11:05:51.345Z,30.89
2019-06-26T11:06:51.012Z,30.76
2019-06-26T11:07:50.997Z,30.81
2019-06-26T11:08:51.103Z,30.74
2019-06-26T11:09:50.985Z,30.84
2019-06-26T11:10:51.016Z,30.76
2019-06-26T11:11:50.990Z,30.84
2019-06-26T11:12:51.011Z,30.84
2019-06-26T11:13:50.936Z,30.91
2019-06-26T11:14:50.988Z,31.01
2019-06-26T11:15:51.003Z,31.05
2019-06-26T11:16:51.026Z,31.02
2019-06-26T11:17:50.961Z,31.05
2019-06-26T11:18:50.911Z,31.06
2019-06-26T11:19:50.908Z,31.05
2019-06-26T11:20:50.935Z,31.17
2019-06-26T11:21:50.936Z,31.23
2019-06-26T11:22:51.105Z,31.23
2019-06-26T11:23:50.871Z,31.27
2019-06-26T11:24:50.961Z,31.23
2019-06-26T11:25:50.861Z,31.23
2019-06-26T11:26:50.815Z,31.35
2019-06-26T11:27:50.840Z,31.33
2019-06-26T11:28:50.784Z,31.33
2019-06-26T11:29:50.779Z,31.27
2019-06-26T11:30:50.805Z,31.43
2019-06-26T11:31:50.770Z,31.45
2019-06-26T11:32:50.740Z,31.36
2019-06-26T11:33:50.762Z,31.42
2019-06-26T11:34:50.758Z,31.46
2019-06-26T11:35:50.787Z,31.43
2019-06-26T11:37:03.177Z,31.49
2019-06-26T11:37:51.690Z,31.48
2019-06-26T11:38:50.681Z,31.57
2019-06-26T11:39:50.793Z,31.60
2019-06-26T11:40:50.704Z,31.58
2019-06-26T11:41:50.690Z,31.61
2019-06-26T11:42:50.652Z,31.60
2019-06-26T11:43:50.636Z,31.70
2019-06-26T11:44:50.663Z,31.73
2019-06-26T11:45:50.649Z,31.67
2019-06-26T11:46:50.619Z,31.76
2019-06-26T11:47:50.603Z,31.75
2019-06-26T11:48:50.628Z,31.65
2019-06-26T11:49:59.715Z,31.67
2019-06-26T11:50:51.561Z,31.79
2019-06-26T11:51:50.595Z,31.70
2019-06-26T11:52:50.549Z,31.67
2019-06-26T11:53:50.559Z,31.70
2019-06-26T11:55:02.013Z,31.62
2019-06-26T11:55:51.526Z,31.61
2019-06-26T11:56:50.541Z,31.58
2019-06-26T11:57:50.554Z,31.62
2019-06-26T11:58:50.488Z,31.61
2019-06-26T11:59:50.502Z,31.58
2019-06-26T12:00:50.485Z,31.61
2019-06-26T12:01:50.470Z,31.60
2019-06-26T12:02:57.995Z,31.64
2019-06-26T12:03:50.434Z,31.67
2019-06-26T12:04:50.446Z,31.70
2019-06-26T12:05:50.469Z,31.76
2019-06-26T12:06:50.412Z,31.68
2019-06-26T12:07:50.406Z,31.70
2019-06-26T12:08:50.443Z,31.75
2019-06-26T12:09:50.498Z,31.75
2019-06-26T12:10:50.376Z,31.72
2019-06-26T12:11:50.362Z,31.70
2019-06-26T12:12:50.406Z,31.68
2019-06-26T12:13:51.391Z,31.76
2019-06-26T12:14:50.386Z,31.79
2019-06-26T12:15:50.633Z,31.85
2019-06-26T12:16:50.307Z,31.79
2019-06-26T12:17:50.291Z,31.88
2019-06-26T12:18:50.323Z,31.91
2019-06-26T12:19:50.281Z,31.85
2019-06-26T12:20:50.281Z,31.82
2019-06-26T12:21:50.275Z,31.82
2019-06-26T12:22:50.286Z,31.79
2019-06-26T12:23:51.023Z,31.79
2019-06-26T12:24:50.225Z,31.84
2019-06-26T12:25:50.273Z,31.84
2019-06-26T12:26:50.318Z,31.92
2019-06-26T12:27:50.226Z,31.92
2019-06-26T12:28:50.177Z,31.84
2019-06-26T12:29:50.189Z,31.79
2019-06-26T12:30:50.191Z,31.80
2019-06-26T12:31:50.184Z,31.77
2019-06-26T12:33:02.487Z,31.76
2019-06-26T12:33:51.128Z,31.79
2019-06-26T12:34:50.183Z,31.84
2019-06-26T12:35:50.142Z,31.93
2019-06-26T12:36:50.098Z,31.92
2019-06-26T12:37:50.142Z,32.03
2019-06-26T12:38:50.085Z,32.06
2019-06-26T12:39:50.101Z,31.98
2019-06-26T12:40:50.153Z,31.99
2019-06-26T12:41:50.070Z,31.96
2019-06-26T12:42:50.043Z,31.87
2019-06-26T12:43:50.032Z,31.91
2019-06-26T12:44:50.084Z,31.88
2019-06-26T12:45:50.007Z,31.88
2019-06-26T12:46:50.088Z,31.84
2019-06-26T12:47:50.121Z,31.88
2019-06-26T12:48:50.018Z,31.88
2019-06-26T12:49:49.987Z,31.95
2019-06-26T12:50:49.964Z,32.02
2019-06-26T12:51:49.946Z,32.00
2019-06-26T12:52:49.971Z,32.02
2019-06-26T12:53:49.938Z,31.99
2019-06-26T12:54:49.908Z,31.99
2019-06-26T12:55:51.545Z,32.00
2019-06-26T12:56:49.910Z,32.00
2019-06-26T12:57:49.881Z,32.10
2019-06-26T12:58:49.894Z,32.17
2019-06-26T12:59:57.218Z,32.11
2019-06-26T13:00:50.849Z,32.11
2019-06-26T13:01:49.901Z,32.07
2019-06-26T13:02:49.845Z,32.14
2019-06-26T13:03:49.829Z,32.06
2019-06-26T13:04:49.818Z,32.00
2019-06-26T13:05:49.829Z,31.96
2019-06-26T13:06:49.803Z,32.06
2019-06-26T13:07:58.354Z,32.07
2019-06-26T13:08:49.794Z,32.02
2019-06-26T13:09:49.783Z,31.91
2019-06-26T13:10:50.620Z,31.93
2019-06-26T13:11:49.845Z,31.92
2019-06-26T13:12:49.734Z,31.96
2019-06-26T13:14:01.974Z,32.06
2019-06-26T13:14:50.715Z,32.02
2019-06-26T13:15:51.082Z,31.96
2019-06-26T13:16:49.712Z,32.05
2019-06-26T13:17:49.764Z,31.98
2019-06-26T13:18:49.742Z,32.00
2019-06-26T13:19:49.733Z,31.98
2019-06-26T13:20:53.319Z,32.03
2019-06-26T13:21:49.673Z,32.02
2019-06-26T13:22:49.647Z,31.92
2019-06-26T13:23:49.615Z,32.00
2019-06-26T13:24:49.640Z,31.98
2019-06-26T13:25:49.647Z,31.96
2019-06-26T13:26:49.627Z,31.96
2019-06-26T13:27:49.602Z,32.02
2019-06-26T13:28:49.583Z,31.98
2019-06-26T13:29:49.561Z,31.93
2019-06-26T13:30:53.104Z,32.03
2019-06-26T13:31:49.698Z,32.02
2019-06-26T13:32:49.540Z,32.13
2019-06-26T13:33:49.528Z,32.11
2019-06-26T13:34:49.511Z,32.11
2019-06-26T13:35:49.573Z,32.05
2019-06-26T13:36:49.501Z,31.95
2019-06-26T13:37:49.475Z,31.99
2019-06-26T13:38:49.476Z,32.02
2019-06-26T13:39:49.495Z,32.03
2019-06-26T13:40:49.484Z,32.00
2019-06-26T13:41:49.513Z,32.00
2019-06-26T13:42:49.428Z,32.03
2019-06-26T13:43:49.413Z,32.07
2019-06-26T13:44:49.404Z,32.10
2019-06-26T13:45:49.424Z,32.06
2019-06-26T13:46:49.391Z,32.14
2019-06-26T13:47:49.408Z,32.17
2019-06-26T13:48:49.363Z,32.20
2019-06-26T13:49:49.386Z,32.22
2019-06-26T13:50:49.350Z,32.15
2019-06-26T13:51:49.378Z,32.11
2019-06-26T13:52:49.333Z,32.10
2019-06-26T13:53:49.384Z,32.11
2019-06-26T13:54:49.361Z,32.07
2019-06-26T13:55:49.305Z,32.15
2019-06-26T13:56:49.284Z,32.07
2019-06-26T13:57:49.341Z,32.07
2019-06-26T13:58:56.828Z,32.11
2019-06-26T13:59:49.346Z,32.13
2019-06-26T14:00:49.266Z,32.13
2019-06-26T14:01:49.294Z,32.11
2019-06-26T14:02:49.244Z,32.10
2019-06-26T14:03:49.229Z,32.14
2019-06-26T14:04:49.206Z,32.02
2019-06-26T14:05:49.191Z,32.05
2019-06-26T14:06:49.416Z,32.00
2019-06-26T14:07:49.180Z,32.00
2019-06-26T14:08:49.161Z,32.06
2019-06-26T14:09:49.191Z,32.13
2019-06-26T14:10:49.195Z,32.13
2019-06-26T14:11:49.132Z,32.13
2019-06-26T14:12:49.145Z,32.07
2019-06-26T14:13:49.135Z,32.11
2019-06-26T14:14:57.275Z,32.11
2019-06-26T14:15:50.094Z,32.03
2019-06-26T14:16:49.080Z,32.15
2019-06-26T14:17:49.134Z,32.07
2019-06-26T14:18:49.078Z,32.03
2019-06-26T14:19:50.235Z,32.03
2019-06-26T14:20:49.056Z,31.98
2019-06-26T14:21:49.035Z,31.98
2019-06-26T14:22:49.017Z,32.02
2019-06-26T14:23:49.059Z,31.95
2019-06-26T14:24:49.036Z,31.96
2019-06-26T14:25:49.006Z,32.03
2019-06-26T14:26:49.025Z,32.03
2019-06-26T14:27:48.997Z,32.00
2019-06-26T14:28:48.996Z,32.03
2019-06-26T14:29:48.952Z,32.00
2019-06-26T14:30:48.950Z,32.02
2019-06-26T14:31:48.939Z,31.98
2019-06-26T14:32:48.956Z,31.92
2019-06-26T14:33:48.918Z,31.96
2019-06-26T14:34:48.939Z,31.92
2019-06-26T14:35:48.902Z,31.92
2019-06-26T14:36:48.884Z,31.85
2019-06-26T14:37:48.895Z,31.95
2019-06-26T14:38:48.881Z,31.88
2019-06-26T14:39:48.906Z,32.06
2019-06-26T14:40:48.852Z,31.95
2019-06-26T14:41:48.837Z,31.91
2019-06-26T14:42:48.831Z,31.88
2019-06-26T14:43:48.816Z,31.82
2019-06-26T14:44:48.836Z,31.84
2019-06-26T14:45:48.806Z,31.93
2019-06-26T14:46:48.816Z,31.91
2019-06-26T14:47:48.810Z,31.92
2019-06-26T14:48:48.767Z,31.92
2019-06-26T14:49:48.796Z,31.92
2019-06-26T14:50:48.746Z,31.88
2019-06-26T14:51:48.754Z,31.84
2019-06-26T14:52:48.713Z,31.84
2019-06-26T14:53:48.748Z,31.87
2019-06-26T14:54:48.794Z,31.82
2019-06-26T14:55:48.690Z,31.95
2019-06-26T14:56:48.686Z,31.93
2019-06-26T14:57:48.699Z,31.88
2019-06-26T14:58:48.659Z,31.84
2019-06-26T14:59:48.813Z,31.80
2019-06-26T15:00:48.635Z,31.88
2019-06-26T15:01:48.628Z,31.99
2019-06-26T15:02:48.640Z,31.84
2019-06-26T15:03:48.599Z,31.93
2019-06-26T15:04:48.648Z,31.92
2019-06-26T15:05:48.584Z,31.92
2019-06-26T15:06:48.582Z,31.95
2019-06-26T15:07:50.184Z,31.95
2019-06-26T15:08:48.583Z,31.85
2019-06-26T15:09:48.575Z,31.88
2019-06-26T15:10:48.564Z,31.76
2019-06-26T15:11:48.537Z,31.77
2019-06-26T15:12:48.523Z,31.85
2019-06-26T15:13:48.506Z,31.80
2019-06-26T15:14:48.525Z,31.77
2019-06-26T15:15:48.498Z,31.85
2019-06-26T15:16:48.529Z,31.80
2019-06-26T15:17:48.550Z,31.85
2019-06-26T15:18:48.470Z,31.92
2019-06-26T15:19:48.481Z,31.77
2019-06-26T15:20:48.471Z,31.79
2019-06-26T15:21:57.830Z,31.77
2019-06-26T15:22:49.466Z,31.87
2019-06-26T15:23:48.412Z,31.95
2019-06-26T15:24:48.409Z,31.88
2019-06-26T15:25:48.483Z,31.85
2019-06-26T15:26:48.421Z,31.87
2019-06-26T15:27:48.397Z,31.85
2019-06-26T15:28:48.353Z,31.76
2019-06-26T15:29:48.362Z,31.85
2019-06-26T15:30:48.387Z,31.87
2019-06-26T15:31:48.324Z,31.80
2019-06-26T15:32:48.345Z,31.80
2019-06-26T15:33:48.341Z,31.91
2019-06-26T15:34:48.332Z,31.92
2019-06-26T15:35:48.279Z,31.88
2019-06-26T15:36:48.312Z,31.93
2019-06-26T15:37:48.320Z,31.88
2019-06-26T15:38:48.398Z,31.87
2019-06-26T15:39:48.254Z,31.91
2019-06-26T15:40:48.265Z,31.99
2019-06-26T15:41:48.246Z,31.98
2019-06-26T15:42:49.172Z,31.93
2019-06-26T15:43:48.220Z,31.93
2019-06-26T15:44:48.186Z,31.85
2019-06-26T15:45:48.176Z,31.85
2019-06-26T15:46:48.206Z,31.87
2019-06-26T15:47:48.194Z,31.96
2019-06-26T15:48:50.300Z,31.95
2019-06-26T15:49:48.142Z,31.98
2019-06-26T15:50:48.123Z,32.06
2019-06-26T15:51:48.174Z,32.10
2019-06-26T15:52:55.692Z,32.03
2019-06-26T15:53:48.093Z,32.05
2019-06-26T15:54:48.122Z,32.02
2019-06-26T15:55:48.080Z,32.02
2019-06-26T15:56:48.071Z,32.05
2019-06-26T15:57:48.112Z,32.10
2019-06-26T15:58:48.143Z,32.11
2019-06-26T15:59:48.033Z,32.14
2019-06-26T16:00:48.069Z,32.11
2019-06-26T16:01:48.035Z,32.10
2019-06-26T16:02:48.042Z,32.11
2019-06-26T16:03:48.005Z,32.10
2019-06-26T16:04:47.990Z,32.11
2019-06-26T16:05:48.037Z,32.06
2019-06-26T16:06:47.970Z,32.10
2019-06-26T16:07:47.986Z,32.10
2019-06-26T16:08:47.939Z,32.10
2019-06-26T16:09:47.936Z,32.14
2019-06-26T16:10:47.964Z,32.14
2019-06-26T16:11:47.927Z,32.02
2019-06-26T16:12:47.969Z,32.06
2019-06-26T16:13:47.908Z,32.07
2019-06-26T16:14:47.888Z,32.07
2019-06-26T16:15:47.876Z,32.07
2019-06-26T16:16:47.872Z,32.13
2019-06-26T16:17:47.892Z,32.07
2019-06-26T16:18:47.849Z,32.10
2019-06-26T16:19:47.848Z,32.11
2019-06-26T16:20:47.820Z,32.14
2019-06-26T16:21:47.860Z,32.14
2019-06-26T16:22:47.809Z,32.13
2019-06-26T16:23:47.809Z,32.14
2019-06-26T16:24:47.848Z,32.20
2019-06-26T16:25:47.831Z,32.07
2019-06-26T16:26:47.770Z,32.11
2019-06-26T16:28:01.063Z,32.14
2019-06-26T16:28:48.758Z,32.24
2019-06-26T16:29:48.657Z,32.24
2019-06-26T16:30:47.766Z,32.20
2019-06-26T16:31:47.728Z,32.22
2019-06-26T16:32:47.732Z,32.33
2019-06-26T16:33:47.691Z,32.33
2019-06-26T16:34:47.680Z,32.32
2019-06-26T16:35:47.671Z,32.30
2019-06-26T16:36:47.690Z,32.42
2019-06-26T16:37:48.025Z,32.32
2019-06-26T16:38:47.649Z,32.39
2019-06-26T16:39:47.627Z,32.39
2019-06-26T16:40:47.667Z,32.36
2019-06-26T16:41:49.139Z,32.39
2019-06-26T16:42:47.600Z,32.44
2019-06-26T16:43:47.592Z,32.51
2019-06-26T16:44:47.608Z,32.40
2019-06-26T16:45:47.566Z,32.49
2019-06-26T16:46:47.568Z,32.54
2019-06-26T16:47:47.632Z,32.49
2019-06-26T16:48:47.576Z,32.55
2019-06-26T16:49:47.548Z,32.51
2019-06-26T16:50:50.605Z,32.52
2019-06-26T16:51:47.514Z,32.59
2019-06-26T16:52:49.558Z,32.47
2019-06-26T16:53:47.494Z,32.61
2019-06-26T16:54:47.525Z,32.55
2019-06-26T16:55:47.481Z,32.44
2019-06-26T16:56:47.465Z,32.49
2019-06-26T16:57:47.489Z,32.52
2019-06-26T16:58:47.465Z,32.48
2019-06-26T16:59:47.506Z,32.48
2019-06-26T17:00:47.429Z,32.37
2019-06-26T17:01:47.422Z,32.39
2019-06-26T17:02:47.422Z,32.42
2019-06-26T17:03:47.420Z,32.39
2019-06-26T17:04:47.376Z,32.42
2019-06-26T17:05:47.362Z,32.33
2019-06-26T17:06:47.398Z,32.32
2019-06-26T17:07:47.382Z,32.33
2019-06-26T17:08:47.458Z,32.32
2019-06-26T17:09:47.737Z,32.27
2019-06-26T17:10:47.316Z,32.25
2019-06-26T17:11:47.356Z,32.30
2019-06-26T17:12:47.317Z,32.27
2019-06-26T17:13:47.311Z,32.30
2019-06-26T17:14:47.292Z,32.24
2019-06-26T17:15:47.264Z,32.22
2019-06-26T17:16:47.311Z,32.24
2019-06-26T17:17:47.251Z,32.24
2019-06-26T17:18:47.263Z,32.22
2019-06-26T17:19:47.225Z,32.25
2019-06-26T17:20:47.256Z,32.20
2019-06-26T17:21:47.243Z,32.22
2019-06-26T17:22:47.199Z,32.36
2019-06-26T17:23:47.184Z,32.33
2019-06-26T17:24:47.211Z,32.32
2019-06-26T17:25:47.215Z,32.36
2019-06-26T17:26:47.244Z,32.35
2019-06-26T17:27:47.283Z,32.42
2019-06-26T17:28:47.139Z,32.42
2019-06-26T17:29:47.212Z,32.39
2019-06-26T17:30:47.129Z,32.44
2019-06-26T17:31:47.101Z,32.33
2019-06-26T17:32:47.128Z,32.33
2019-06-26T17:33:47.138Z,32.37
2019-06-26T17:34:47.100Z,32.39
2019-06-26T17:35:47.078Z,32.43
2019-06-26T17:36:47.095Z,32.39
2019-06-26T17:37:47.044Z,32.39
2019-06-26T17:38:47.029Z,32.32
2019-06-26T17:39:47.213Z,32.33
2019-06-26T17:40:47.044Z,32.37
2019-06-26T17:41:47.005Z,32.22
2019-06-26T17:42:47.030Z,32.22
2019-06-26T17:43:47.068Z,32.21
2019-06-26T17:44:47.010Z,32.22
2019-06-26T17:45:47.014Z,32.17
2019-06-26T17:46:46.964Z,32.15
2019-06-26T17:47:46.974Z,32.10
2019-06-26T17:48:55.517Z,32.11
2019-06-26T17:49:46.947Z,32.13
2019-06-26T17:50:46.927Z,31.99
2019-06-26T17:51:46.914Z,32.00
2019-06-26T17:52:46.929Z,31.98
2019-06-26T17:53:46.887Z,32.03
2019-06-26T17:54:46.911Z,32.06
2019-06-26T17:55:46.860Z,31.84
2019-06-26T17:56:46.944Z,31.77
2019-06-26T17:57:47.741Z,31.79
2019-06-26T17:58:46.845Z,31.77
2019-06-26T17:59:46.815Z,31.70
2019-06-26T18:00:46.812Z,31.68
2019-06-26T18:01:46.872Z,31.70
2019-06-26T18:02:46.791Z,31.75
2019-06-26T18:03:46.781Z,31.75
2019-06-26T18:04:46.809Z,31.67
2019-06-26T18:05:46.809Z,31.70
2019-06-26T18:06:46.830Z,31.58
2019-06-26T18:07:46.741Z,31.64
2019-06-26T18:08:46.727Z,31.53
2019-06-26T18:09:46.727Z,31.54
2019-06-26T18:10:46.707Z,31.62
2019-06-26T18:11:55.555Z,31.48
2019-06-26T18:12:46.695Z,31.48
2019-06-26T18:13:46.720Z,31.53
2019-06-26T18:14:46.677Z,31.35
2019-06-26T18:15:46.822Z,31.43
2019-06-26T18:16:46.688Z,31.42
2019-06-26T18:17:46.641Z,31.28
2019-06-26T18:18:46.645Z,31.33
2019-06-26T18:19:46.684Z,31.30
2019-06-26T18:20:46.642Z,31.23
2019-06-26T18:21:46.594Z,31.24
2019-06-26T18:22:46.589Z,31.21
2019-06-26T18:23:46.581Z,31.26
2019-06-26T18:24:46.567Z,31.15
2019-06-26T18:25:53.851Z,31.13
2019-06-26T18:26:47.549Z,31.08
2019-06-26T18:27:46.548Z,31.09
2019-06-26T18:28:46.544Z,31.12
2019-06-26T18:29:46.533Z,31.11
2019-06-26T18:30:46.539Z,31.12
2019-06-26T18:31:46.502Z,31.02
2019-06-26T18:32:46.503Z,31.05
2019-06-26T18:33:46.491Z,31.06
2019-06-26T18:34:46.973Z,31.04
2019-06-26T18:35:46.455Z,30.96
2019-06-26T18:36:46.460Z,30.84
2019-06-26T18:37:46.434Z,30.86
2019-06-26T18:38:46.436Z,30.78
2019-06-26T18:39:46.443Z,30.71
2019-06-26T18:40:46.415Z,30.72
2019-06-26T18:41:46.402Z,30.67
2019-06-26T18:42:46.388Z,30.71
2019-06-26T18:43:46.464Z,30.57
2019-06-26T18:44:46.435Z,30.61
2019-06-26T18:45:46.359Z,30.62
2019-06-26T18:46:46.341Z,30.57
2019-06-26T18:47:46.336Z,30.57
2019-06-26T18:48:46.329Z,30.52
2019-06-26T18:49:46.339Z,30.43
2019-06-26T18:50:46.308Z,30.45
2019-06-26T18:51:46.336Z,30.45
2019-06-26T18:52:46.283Z,30.47
2019-06-26T18:53:53.596Z,30.40
2019-06-26T18:54:47.302Z,30.31